sensor_id;sensor_type;location;lat;lon;timestamp;P1;durP1;ratioP1;P2;durP2;ratioP2
67442;SDS011;54311;51.726;5.154;2023-05-10T00:01:19;40.65;;;29.77;;
67442;SDS011;54311;51.726;5.154;2023-05-10T00:03:45;36.53;;;27.92;;
67442;SDS011;54311;51.726;5.154;2023-05-10T00:06:10;43.65;;;29.73;;
67442;SDS011;54311;51.726;5.154;2023-05-10T00:08:35;36.55;;;28.70;;
67442;SDS011;54311;51.726;5.154;2023-05-10T00:11:01;38.42;;;28.13;;
67442;SDS011;54311;51.726;5.154;2023-05-10T00:13:26;40.13;;;27.45;;
67442;SDS011;54311;51.726;5.154;2023-05-10T00:15:51;35.95;;;26.90;;
67442;SDS011;54311;51.726;5.154;2023-05-10T00:18:17;38.10;;;25.30;;
67442;SDS011;54311;51.726;5.154;2023-05-10T00:20:42;36.15;;;25.48;;
67442;SDS011;54311;51.726;5.154;2023-05-10T00:23:07;36.97;;;26.17;;
67442;SDS011;54311;51.726;5.154;2023-05-10T00:25:33;37.80;;;24.58;;
67442;SDS011;54311;51.726;5.154;2023-05-10T00:27:58;36.83;;;24.38;;
67442;SDS011;54311;51.726;5.154;2023-05-10T00:30:26;41.08;;;24.75;;
67442;SDS011;54311;51.726;5.154;2023-05-10T00:32:51;33.20;;;24.02;;
67442;SDS011;54311;51.726;5.154;2023-05-10T00:35:16;36.30;;;24.35;;
67442;SDS011;54311;51.726;5.154;2023-05-10T00:37:42;42.58;;;26.65;;
67442;SDS011;54311;51.726;5.154;2023-05-10T00:40:07;43.10;;;26.08;;
67442;SDS011;54311;51.726;5.154;2023-05-10T00:42:33;42.90;;;26.83;;
67442;SDS011;54311;51.726;5.154;2023-05-10T00:44:58;44.75;;;27.92;;
67442;SDS011;54311;51.726;5.154;2023-05-10T00:47:23;42.67;;;27.55;;
67442;SDS011;54311;51.726;5.154;2023-05-10T00:49:49;51.22;;;28.60;;
67442;SDS011;54311;51.726;5.154;2023-05-10T00:52:14;42.28;;;28.00;;
67442;SDS011;54311;51.726;5.154;2023-05-10T00:54:40;44.15;;;27.85;;
67442;SDS011;54311;51.726;5.154;2023-05-10T00:57:06;44.70;;;27.70;;
67442;SDS011;54311;51.726;5.154;2023-05-10T00:59:31;44.47;;;28.45;;
67442;SDS011;54311;51.726;5.154;2023-05-10T01:01:57;45.50;;;29.10;;
67442;SDS011;54311;51.726;5.154;2023-05-10T01:04:23;44.50;;;29.95;;
67442;SDS011;54311;51.726;5.154;2023-05-10T01:06:51;54.42;;;31.60;;
67442;SDS011;54311;51.726;5.154;2023-05-10T01:09:17;45.97;;;29.95;;
67442;SDS011;54311;51.726;5.154;2023-05-10T01:11:43;46.42;;;31.00;;
67442;SDS011;54311;51.726;5.154;2023-05-10T01:14:08;48.63;;;29.92;;
67442;SDS011;54311;51.726;5.154;2023-05-10T01:16:36;47.80;;;31.83;;
67442;SDS011;54311;51.726;5.154;2023-05-10T01:19:03;55.97;;;33.35;;
67442;SDS011;54311;51.726;5.154;2023-05-10T01:21:33;45.72;;;30.50;;
67442;SDS011;54311;51.726;5.154;2023-05-10T01:24:19;47.42;;;29.92;;
67442;SDS011;54311;51.726;5.154;2023-05-10T01:32:48;43.95;;;27.85;;
67442;SDS011;54311;51.726;5.154;2023-05-10T01:35:23;43.35;;;29.50;;
67442;SDS011;54311;51.726;5.154;2023-05-10T01:38:18;39.42;;;26.88;;
67442;SDS011;54311;51.726;5.154;2023-05-10T01:43:20;41.47;;;27.77;;
67442;SDS011;54311;51.726;5.154;2023-05-10T01:45:59;41.85;;;28.23;;
67442;SDS011;54311;51.726;5.154;2023-05-10T01:48:29;37.22;;;27.08;;
67442;SDS011;54311;51.726;5.154;2023-05-10T01:50:55;39.53;;;26.58;;
67442;SDS011;54311;51.726;5.154;2023-05-10T01:53:21;45.42;;;28.27;;
67442;SDS011;54311;51.726;5.154;2023-05-10T01:55:49;46.15;;;26.40;;
67442;SDS011;54311;51.726;5.154;2023-05-10T01:58:30;35.72;;;25.73;;
67442;SDS011;54311;51.726;5.154;2023-05-10T02:00:57;44.78;;;26.13;;
67442;SDS011;54311;51.726;5.154;2023-05-10T02:03:24;45.13;;;26.20;;
67442;SDS011;54311;51.726;5.154;2023-05-10T02:05:51;39.33;;;24.05;;
67442;SDS011;54311;51.726;5.154;2023-05-10T02:08:17;38.05;;;25.27;;
67442;SDS011;54311;51.726;5.154;2023-05-10T02:10:43;39.20;;;23.73;;
67442;SDS011;54311;51.726;5.154;2023-05-10T02:13:10;40.50;;;24.58;;
67442;SDS011;54311;51.726;5.154;2023-05-10T02:15:36;33.10;;;22.42;;
67442;SDS011;54311;51.726;5.154;2023-05-10T02:18:02;43.13;;;23.25;;
67442;SDS011;54311;51.726;5.154;2023-05-10T02:20:29;42.53;;;23.30;;
67442;SDS011;54311;51.726;5.154;2023-05-10T02:22:56;38.63;;;25.02;;
67442;SDS011;54311;51.726;5.154;2023-05-10T02:25:23;39.83;;;23.85;;
67442;SDS011;54311;51.726;5.154;2023-05-10T02:27:49;41.53;;;24.70;;
67442;SDS011;54311;51.726;5.154;2023-05-10T02:30:16;35.80;;;24.65;;
67442;SDS011;54311;51.726;5.154;2023-05-10T02:32:43;45.10;;;27.38;;
67442;SDS011;54311;51.726;5.154;2023-05-10T02:35:09;50.15;;;29.35;;
67442;SDS011;54311;51.726;5.154;2023-05-10T02:37:35;42.25;;;29.73;;
67442;SDS011;54311;51.726;5.154;2023-05-10T02:40:02;47.40;;;29.88;;
67442;SDS011;54311;51.726;5.154;2023-05-10T02:42:29;38.97;;;29.35;;
67442;SDS011;54311;51.726;5.154;2023-05-10T02:44:56;43.65;;;30.73;;
67442;SDS011;54311;51.726;5.154;2023-05-10T02:47:25;52.03;;;33.20;;
67442;SDS011;54311;51.726;5.154;2023-05-10T02:49:50;49.13;;;32.13;;
67442;SDS011;54311;51.726;5.154;2023-05-10T02:52:16;48.08;;;33.25;;
67442;SDS011;54311;51.726;5.154;2023-05-10T02:54:47;49.10;;;33.67;;
67442;SDS011;54311;51.726;5.154;2023-05-10T02:57:20;51.45;;;33.95;;
67442;SDS011;54311;51.726;5.154;2023-05-10T02:59:52;53.05;;;34.67;;
67442;SDS011;54311;51.726;5.154;2023-05-10T03:02:17;47.60;;;32.33;;
67442;SDS011;54311;51.726;5.154;2023-05-10T03:04:43;48.80;;;32.50;;
67442;SDS011;54311;51.726;5.154;2023-05-10T03:07:08;53.00;;;34.63;;
67442;SDS011;54311;51.726;5.154;2023-05-10T03:09:34;52.25;;;34.88;;
67442;SDS011;54311;51.726;5.154;2023-05-10T03:12:11;48.75;;;34.03;;
67442;SDS011;54311;51.726;5.154;2023-05-10T03:14:46;45.80;;;32.13;;
67442;SDS011;54311;51.726;5.154;2023-05-10T03:20:08;50.47;;;34.00;;
67442;SDS011;54311;51.726;5.154;2023-05-10T03:22:47;54.75;;;33.85;;
67442;SDS011;54311;51.726;5.154;2023-05-10T03:25:15;47.15;;;33.33;;
67442;SDS011;54311;51.726;5.154;2023-05-10T03:27:41;48.53;;;33.72;;
67442;SDS011;54311;51.726;5.154;2023-05-10T03:30:08;57.33;;;33.58;;
67442;SDS011;54311;51.726;5.154;2023-05-10T03:32:35;49.40;;;34.28;;
67442;SDS011;54311;51.726;5.154;2023-05-10T03:35:01;47.80;;;34.13;;
67442;SDS011;54311;51.726;5.154;2023-05-10T03:37:31;50.33;;;31.58;;
67442;SDS011;54311;51.726;5.154;2023-05-10T03:39:57;53.20;;;34.65;;
67442;SDS011;54311;51.726;5.154;2023-05-10T03:42:22;52.83;;;34.92;;
67442;SDS011;54311;51.726;5.154;2023-05-10T03:44:47;52.45;;;34.15;;
67442;SDS011;54311;51.726;5.154;2023-05-10T03:47:14;56.30;;;36.13;;
67442;SDS011;54311;51.726;5.154;2023-05-10T03:49:39;60.50;;;38.35;;
67442;SDS011;54311;51.726;5.154;2023-05-10T03:52:05;61.33;;;39.30;;
67442;SDS011;54311;51.726;5.154;2023-05-10T03:54:31;60.25;;;37.92;;
67442;SDS011;54311;51.726;5.154;2023-05-10T03:56:57;67.82;;;41.80;;
67442;SDS011;54311;51.726;5.154;2023-05-10T03:59:23;65.88;;;40.20;;
67442;SDS011;54311;51.726;5.154;2023-05-10T04:01:48;65.07;;;38.78;;
67442;SDS011;54311;51.726;5.154;2023-05-10T04:04:13;67.15;;;40.70;;
67442;SDS011;54311;51.726;5.154;2023-05-10T04:06:39;68.68;;;41.92;;
67442;SDS011;54311;51.726;5.154;2023-05-10T04:09:04;70.72;;;42.40;;
67442;SDS011;54311;51.726;5.154;2023-05-10T04:11:30;76.07;;;43.40;;
67442;SDS011;54311;51.726;5.154;2023-05-10T04:13:55;70.90;;;43.58;;
67442;SDS011;54311;51.726;5.154;2023-05-10T04:16:20;74.10;;;46.65;;
67442;SDS011;54311;51.726;5.154;2023-05-10T04:18:46;73.50;;;44.97;;
67442;SDS011;54311;51.726;5.154;2023-05-10T04:21:11;75.22;;;44.58;;
67442;SDS011;54311;51.726;5.154;2023-05-10T04:23:38;73.72;;;43.70;;
67442;SDS011;54311;51.726;5.154;2023-05-10T04:26:03;70.18;;;44.45;;
67442;SDS011;54311;51.726;5.154;2023-05-10T04:28:29;65.88;;;42.60;;
67442;SDS011;54311;51.726;5.154;2023-05-10T04:31:03;69.82;;;44.97;;
67442;SDS011;54311;51.726;5.154;2023-05-10T04:33:29;68.13;;;41.75;;
67442;SDS011;54311;51.726;5.154;2023-05-10T04:35:55;67.38;;;42.78;;
67442;SDS011;54311;51.726;5.154;2023-05-10T04:38:20;68.30;;;41.90;;
67442;SDS011;54311;51.726;5.154;2023-05-10T04:40:46;72.30;;;42.05;;
67442;SDS011;54311;51.726;5.154;2023-05-10T04:43:11;65.30;;;42.25;;
67442;SDS011;54311;51.726;5.154;2023-05-10T04:45:36;68.35;;;41.17;;
67442;SDS011;54311;51.726;5.154;2023-05-10T04:48:01;64.80;;;40.63;;
67442;SDS011;54311;51.726;5.154;2023-05-10T04:50:27;68.47;;;41.08;;
67442;SDS011;54311;51.726;5.154;2023-05-10T04:52:52;63.20;;;39.35;;
67442;SDS011;54311;51.726;5.154;2023-05-10T04:55:17;66.95;;;39.83;;
67442;SDS011;54311;51.726;5.154;2023-05-10T04:57:43;61.17;;;38.90;;
67442;SDS011;54311;51.726;5.154;2023-05-10T05:00:09;63.05;;;37.47;;
67442;SDS011;54311;51.726;5.154;2023-05-10T05:02:35;56.22;;;38.28;;
67442;SDS011;54311;51.726;5.154;2023-05-10T05:05:00;58.90;;;35.88;;
67442;SDS011;54311;51.726;5.154;2023-05-10T05:07:26;57.30;;;36.42;;
67442;SDS011;54311;51.726;5.154;2023-05-10T05:09:51;51.78;;;35.25;;
67442;SDS011;54311;51.726;5.154;2023-05-10T05:12:17;54.00;;;36.20;;
67442;SDS011;54311;51.726;5.154;2023-05-10T05:14:42;55.22;;;35.92;;
67442;SDS011;54311;51.726;5.154;2023-05-10T05:17:08;58.35;;;34.58;;
67442;SDS011;54311;51.726;5.154;2023-05-10T05:19:33;48.95;;;33.55;;
67442;SDS011;54311;51.726;5.154;2023-05-10T05:21:58;53.83;;;36.35;;
67442;SDS011;54311;51.726;5.154;2023-05-10T05:24:24;57.97;;;35.90;;
67442;SDS011;54311;51.726;5.154;2023-05-10T05:26:49;53.90;;;33.65;;
67442;SDS011;54311;51.726;5.154;2023-05-10T05:29:14;47.97;;;33.08;;
67442;SDS011;54311;51.726;5.154;2023-05-10T05:31:40;46.85;;;31.80;;
67442;SDS011;54311;51.726;5.154;2023-05-10T05:34:05;50.90;;;31.80;;
67442;SDS011;54311;51.726;5.154;2023-05-10T05:36:30;45.05;;;32.30;;
67442;SDS011;54311;51.726;5.154;2023-05-10T05:38:56;45.63;;;30.52;;
67442;SDS011;54311;51.726;5.154;2023-05-10T05:41:22;48.83;;;31.77;;
67442;SDS011;54311;51.726;5.154;2023-05-10T05:43:48;47.00;;;30.40;;
67442;SDS011;54311;51.726;5.154;2023-05-10T05:46:14;51.47;;;30.75;;
67442;SDS011;54311;51.726;5.154;2023-05-10T05:48:39;45.50;;;29.98;;
67442;SDS011;54311;51.726;5.154;2023-05-10T05:51:05;53.63;;;30.85;;
67442;SDS011;54311;51.726;5.154;2023-05-10T05:53:30;47.83;;;30.50;;
67442;SDS011;54311;51.726;5.154;2023-05-10T05:55:56;52.45;;;31.45;;
67442;SDS011;54311;51.726;5.154;2023-05-10T05:58:23;46.55;;;31.30;;
67442;SDS011;54311;51.726;5.154;2023-05-10T06:00:49;46.67;;;32.03;;
67442;SDS011;54311;51.726;5.154;2023-05-10T06:03:14;49.55;;;31.98;;
67442;SDS011;54311;51.726;5.154;2023-05-10T06:05:40;56.67;;;32.38;;
67442;SDS011;54311;51.726;5.154;2023-05-10T06:08:05;44.97;;;32.28;;
67442;SDS011;54311;51.726;5.154;2023-05-10T06:10:31;53.50;;;33.88;;
67442;SDS011;54311;51.726;5.154;2023-05-10T06:12:56;53.40;;;35.10;;
67442;SDS011;54311;51.726;5.154;2023-05-10T06:15:21;55.85;;;37.60;;
67442;SDS011;54311;51.726;5.154;2023-05-10T06:17:47;58.53;;;41.53;;
67442;SDS011;54311;51.726;5.154;2023-05-10T06:20:14;64.60;;;42.67;;
67442;SDS011;54311;51.726;5.154;2023-05-10T06:22:40;65.93;;;43.45;;
67442;SDS011;54311;51.726;5.154;2023-05-10T06:25:05;65.30;;;44.67;;
67442;SDS011;54311;51.726;5.154;2023-05-10T06:27:31;60.83;;;42.42;;
67442;SDS011;54311;51.726;5.154;2023-05-10T06:29:56;54.63;;;40.25;;
67442;SDS011;54311;51.726;5.154;2023-05-10T06:32:21;60.13;;;40.97;;
67442;SDS011;54311;51.726;5.154;2023-05-10T06:34:47;58.53;;;39.05;;
67442;SDS011;54311;51.726;5.154;2023-05-10T06:37:12;60.05;;;38.90;;
67442;SDS011;54311;51.726;5.154;2023-05-10T06:39:37;55.80;;;36.50;;
67442;SDS011;54311;51.726;5.154;2023-05-10T06:42:03;58.83;;;36.20;;
67442;SDS011;54311;51.726;5.154;2023-05-10T06:44:29;51.45;;;34.42;;
67442;SDS011;54311;51.726;5.154;2023-05-10T06:46:54;59.95;;;37.42;;
67442;SDS011;54311;51.726;5.154;2023-05-10T06:49:20;59.78;;;37.67;;
67442;SDS011;54311;51.726;5.154;2023-05-10T06:51:46;63.35;;;38.40;;
67442;SDS011;54311;51.726;5.154;2023-05-10T06:54:11;63.25;;;39.05;;
67442;SDS011;54311;51.726;5.154;2023-05-10T06:56:36;58.25;;;39.88;;
67442;SDS011;54311;51.726;5.154;2023-05-10T06:59:02;57.53;;;37.67;;
67442;SDS011;54311;51.726;5.154;2023-05-10T07:01:27;55.55;;;36.45;;
67442;SDS011;54311;51.726;5.154;2023-05-10T07:03:53;56.97;;;37.65;;
67442;SDS011;54311;51.726;5.154;2023-05-10T07:06:18;53.42;;;36.45;;
67442;SDS011;54311;51.726;5.154;2023-05-10T07:08:45;50.88;;;36.72;;
67442;SDS011;54311;51.726;5.154;2023-05-10T07:11:10;57.70;;;38.38;;
67442;SDS011;54311;51.726;5.154;2023-05-10T07:13:35;59.30;;;36.85;;
67442;SDS011;54311;51.726;5.154;2023-05-10T07:16:01;57.13;;;36.22;;
67442;SDS011;54311;51.726;5.154;2023-05-10T07:18:27;62.00;;;38.33;;
67442;SDS011;54311;51.726;5.154;2023-05-10T07:20:52;56.97;;;34.28;;
67442;SDS011;54311;51.726;5.154;2023-05-10T07:23:17;54.40;;;34.95;;
67442;SDS011;54311;51.726;5.154;2023-05-10T07:25:49;56.78;;;34.28;;
67442;SDS011;54311;51.726;5.154;2023-05-10T07:28:17;56.33;;;37.40;;
67442;SDS011;54311;51.726;5.154;2023-05-10T07:30:42;54.92;;;37.75;;
67442;SDS011;54311;51.726;5.154;2023-05-10T07:33:09;56.55;;;39.25;;
67442;SDS011;54311;51.726;5.154;2023-05-10T07:35:34;61.30;;;39.00;;
67442;SDS011;54311;51.726;5.154;2023-05-10T07:38:00;62.35;;;39.28;;
67442;SDS011;54311;51.726;5.154;2023-05-10T07:40:25;55.28;;;39.00;;
67442;SDS011;54311;51.726;5.154;2023-05-10T07:42:51;54.10;;;38.67;;
67442;SDS011;54311;51.726;5.154;2023-05-10T07:45:16;49.30;;;36.05;;
67442;SDS011;54311;51.726;5.154;2023-05-10T07:47:42;47.83;;;34.95;;
67442;SDS011;54311;51.726;5.154;2023-05-10T07:50:07;48.88;;;34.75;;
67442;SDS011;54311;51.726;5.154;2023-05-10T07:52:34;45.47;;;32.40;;
67442;SDS011;54311;51.726;5.154;2023-05-10T07:54:59;42.47;;;31.30;;
67442;SDS011;54311;51.726;5.154;2023-05-10T07:57:25;40.25;;;31.55;;
67442;SDS011;54311;51.726;5.154;2023-05-10T07:59:50;38.38;;;28.60;;
67442;SDS011;54311;51.726;5.154;2023-05-10T08:02:16;36.10;;;28.73;;
67442;SDS011;54311;51.726;5.154;2023-05-10T08:04:41;43.67;;;28.63;;
67442;SDS011;54311;51.726;5.154;2023-05-10T08:07:06;40.95;;;30.88;;
67442;SDS011;54311;51.726;5.154;2023-05-10T08:09:32;31.00;;;22.40;;
67442;SDS011;54311;51.726;5.154;2023-05-10T08:11:57;24.92;;;21.63;;
67442;SDS011;54311;51.726;5.154;2023-05-10T08:14:24;23.45;;;18.77;;
67442;SDS011;54311;51.726;5.154;2023-05-10T08:16:49;20.40;;;14.95;;
67442;SDS011;54311;51.726;5.154;2023-05-10T08:19:15;19.60;;;14.45;;
67442;SDS011;54311;51.726;5.154;2023-05-10T08:21:43;16.95;;;13.73;;
67442;SDS011;54311;51.726;5.154;2023-05-10T08:24:09;18.75;;;13.35;;
67442;SDS011;54311;51.726;5.154;2023-05-10T08:26:34;21.48;;;14.68;;
67442;SDS011;54311;51.726;5.154;2023-05-10T08:29:00;20.52;;;13.60;;
67442;SDS011;54311;51.726;5.154;2023-05-10T08:31:25;15.57;;;12.38;;
67442;SDS011;54311;51.726;5.154;2023-05-10T08:33:50;16.02;;;14.00;;
67442;SDS011;54311;51.726;5.154;2023-05-10T08:36:17;17.45;;;14.85;;
67442;SDS011;54311;51.726;5.154;2023-05-10T08:38:46;18.55;;;15.45;;
67442;SDS011;54311;51.726;5.154;2023-05-10T08:41:20;19.13;;;15.25;;
67442;SDS011;54311;51.726;5.154;2023-05-10T08:43:47;18.15;;;16.25;;
67442;SDS011;54311;51.726;5.154;2023-05-10T08:46:16;19.90;;;16.33;;
67442;SDS011;54311;51.726;5.154;2023-05-10T08:48:43;19.52;;;17.65;;
67442;SDS011;54311;51.726;5.154;2023-05-10T08:51:14;20.67;;;17.55;;
67442;SDS011;54311;51.726;5.154;2023-05-10T08:53:41;23.27;;;17.02;;
67442;SDS011;54311;51.726;5.154;2023-05-10T08:56:06;17.23;;;15.52;;
67442;SDS011;54311;51.726;5.154;2023-05-10T08:58:32;19.25;;;15.80;;
67442;SDS011;54311;51.726;5.154;2023-05-10T09:00:57;22.00;;;18.65;;
67442;SDS011;54311;51.726;5.154;2023-05-10T09:03:23;20.23;;;18.05;;
67442;SDS011;54311;51.726;5.154;2023-05-10T09:05:48;17.40;;;15.65;;
67442;SDS011;54311;51.726;5.154;2023-05-10T09:08:14;19.27;;;16.42;;
67442;SDS011;54311;51.726;5.154;2023-05-10T09:10:41;15.57;;;13.98;;
67442;SDS011;54311;51.726;5.154;2023-05-10T09:13:08;17.08;;;14.05;;
67442;SDS011;54311;51.726;5.154;2023-05-10T09:15:35;16.00;;;14.40;;
67442;SDS011;54311;51.726;5.154;2023-05-10T09:18:00;17.50;;;14.25;;
67442;SDS011;54311;51.726;5.154;2023-05-10T09:20:27;15.73;;;14.05;;
67442;SDS011;54311;51.726;5.154;2023-05-10T09:22:52;18.10;;;13.95;;
67442;SDS011;54311;51.726;5.154;2023-05-10T09:25:18;15.48;;;13.20;;
67442;SDS011;54311;51.726;5.154;2023-05-10T09:27:44;16.45;;;14.73;;
67442;SDS011;54311;51.726;5.154;2023-05-10T09:30:15;15.48;;;13.98;;
67442;SDS011;54311;51.726;5.154;2023-05-10T09:33:00;15.10;;;13.52;;
67442;SDS011;54311;51.726;5.154;2023-05-10T09:35:27;14.63;;;13.13;;
67442;SDS011;54311;51.726;5.154;2023-05-10T09:37:54;18.38;;;14.65;;
67442;SDS011;54311;51.726;5.154;2023-05-10T09:40:22;15.40;;;13.25;;
67442;SDS011;54311;51.726;5.154;2023-05-10T09:42:54;13.57;;;12.30;;
67442;SDS011;54311;51.726;5.154;2023-05-10T09:45:20;11.18;;;10.07;;
67442;SDS011;54311;51.726;5.154;2023-05-10T09:47:47;12.30;;;11.00;;
67442;SDS011;54311;51.726;5.154;2023-05-10T09:50:12;12.48;;;11.23;;
67442;SDS011;54311;51.726;5.154;2023-05-10T09:55:14;11.43;;;9.95;;
67442;SDS011;54311;51.726;5.154;2023-05-10T09:57:41;12.25;;;11.15;;
67442;SDS011;54311;51.726;5.154;2023-05-10T10:00:07;13.38;;;11.05;;
67442;SDS011;54311;51.726;5.154;2023-05-10T10:02:33;11.75;;;10.65;;
67442;SDS011;54311;51.726;5.154;2023-05-10T10:05:02;13.45;;;10.98;;
67442;SDS011;54311;51.726;5.154;2023-05-10T10:07:28;11.27;;;10.25;;
67442;SDS011;54311;51.726;5.154;2023-05-10T10:09:54;17.92;;;11.52;;
67442;SDS011;54311;51.726;5.154;2023-05-10T10:12:20;12.48;;;10.90;;
67442;SDS011;54311;51.726;5.154;2023-05-10T10:14:48;16.13;;;12.73;;
67442;SDS011;54311;51.726;5.154;2023-05-10T10:17:15;14.48;;;13.00;;
67442;SDS011;54311;51.726;5.154;2023-05-10T10:19:41;15.77;;;14.02;;
67442;SDS011;54311;51.726;5.154;2023-05-10T10:22:06;17.02;;;15.27;;
67442;SDS011;54311;51.726;5.154;2023-05-10T10:24:32;15.93;;;14.23;;
67442;SDS011;54311;51.726;5.154;2023-05-10T10:26:59;15.48;;;13.85;;
67442;SDS011;54311;51.726;5.154;2023-05-10T10:34:55;14.10;;;12.70;;
67442;SDS011;54311;51.726;5.154;2023-05-10T10:37:21;15.27;;;13.80;;
67442;SDS011;54311;51.726;5.154;2023-05-10T10:39:48;14.85;;;12.93;;
67442;SDS011;54311;51.726;5.154;2023-05-10T10:42:13;16.52;;;14.77;;
67442;SDS011;54311;51.726;5.154;2023-05-10T10:44:39;18.10;;;14.45;;
67442;SDS011;54311;51.726;5.154;2023-05-10T10:49:50;17.15;;;14.70;;
67442;SDS011;54311;51.726;5.154;2023-05-10T11:00:54;14.60;;;13.07;;
67442;SDS011;54311;51.726;5.154;2023-05-10T11:03:05;13.80;;;12.50;;
67442;SDS011;54311;51.726;5.154;2023-05-10T11:05:39;14.90;;;12.57;;
67442;SDS011;54311;51.726;5.154;2023-05-10T11:10:36;15.63;;;11.80;;
67442;SDS011;54311;51.726;5.154;2023-05-10T11:13:03;11.35;;;10.23;;
67442;SDS011;54311;51.726;5.154;2023-05-10T11:15:30;12.55;;;11.25;;
67442;SDS011;54311;51.726;5.154;2023-05-10T11:17:59;12.80;;;11.40;;
67442;SDS011;54311;51.726;5.154;2023-05-10T11:20:28;12.20;;;10.93;;
67442;SDS011;54311;51.726;5.154;2023-05-10T11:22:59;12.10;;;10.85;;
67442;SDS011;54311;51.726;5.154;2023-05-10T11:25:40;12.18;;;11.25;;
67442;SDS011;54311;51.726;5.154;2023-05-10T11:28:06;11.73;;;10.77;;
67442;SDS011;54311;51.726;5.154;2023-05-10T11:30:32;11.85;;;10.73;;
67442;SDS011;54311;51.726;5.154;2023-05-10T11:32:57;12.13;;;10.85;;
67442;SDS011;54311;51.726;5.154;2023-05-10T11:35:23;11.88;;;10.88;;
67442;SDS011;54311;51.726;5.154;2023-05-10T11:37:48;12.63;;;11.57;;
67442;SDS011;54311;51.726;5.154;2023-05-10T11:40:13;10.57;;;9.35;;
67442;SDS011;54311;51.726;5.154;2023-05-10T11:42:39;10.05;;;9.13;;
67442;SDS011;54311;51.726;5.154;2023-05-10T11:45:05;9.77;;;8.90;;
67442;SDS011;54311;51.726;5.154;2023-05-10T11:47:31;10.43;;;9.60;;
67442;SDS011;54311;51.726;5.154;2023-05-10T11:49:56;9.90;;;9.00;;
67442;SDS011;54311;51.726;5.154;2023-05-10T11:52:22;10.15;;;9.15;;
67442;SDS011;54311;51.726;5.154;2023-05-10T11:54:52;11.13;;;9.13;;
67442;SDS011;54311;51.726;5.154;2023-05-10T11:57:18;8.05;;;7.22;;
67442;SDS011;54311;51.726;5.154;2023-05-10T11:59:45;7.68;;;6.63;;
67442;SDS011;54311;51.726;5.154;2023-05-10T12:02:14;8.30;;;7.65;;
67442;SDS011;54311;51.726;5.154;2023-05-10T12:04:40;8.48;;;7.53;;
67442;SDS011;54311;51.726;5.154;2023-05-10T12:07:06;8.75;;;7.88;;
67442;SDS011;54311;51.726;5.154;2023-05-10T12:09:31;7.95;;;7.35;;
67442;SDS011;54311;51.726;5.154;2023-05-10T12:11:56;7.50;;;6.90;;
67442;SDS011;54311;51.726;5.154;2023-05-10T12:14:22;7.13;;;6.63;;
67442;SDS011;54311;51.726;5.154;2023-05-10T12:16:47;8.55;;;7.95;;
67442;SDS011;54311;51.726;5.154;2023-05-10T12:19:12;8.93;;;8.13;;
67442;SDS011;54311;51.726;5.154;2023-05-10T12:21:43;7.68;;;6.95;;
67442;SDS011;54311;51.726;5.154;2023-05-10T12:24:09;7.15;;;6.45;;
67442;SDS011;54311;51.726;5.154;2023-05-10T12:26:35;6.90;;;5.63;;
67442;SDS011;54311;51.726;5.154;2023-05-10T12:31:58;7.18;;;6.40;;
67442;SDS011;54311;51.726;5.154;2023-05-10T12:36:59;7.57;;;7.07;;
67442;SDS011;54311;51.726;5.154;2023-05-10T12:39:25;9.50;;;8.68;;
67442;SDS011;54311;51.726;5.154;2023-05-10T12:41:51;9.13;;;8.32;;
67442;SDS011;54311;51.726;5.154;2023-05-10T12:44:17;13.20;;;11.10;;
67442;SDS011;54311;51.726;5.154;2023-05-10T12:46:42;12.73;;;11.45;;
67442;SDS011;54311;51.726;5.154;2023-05-10T12:49:08;11.73;;;10.52;;
67442;SDS011;54311;51.726;5.154;2023-05-10T12:51:33;12.93;;;10.35;;
67442;SDS011;54311;51.726;5.154;2023-05-10T12:53:58;11.82;;;10.27;;
67442;SDS011;54311;51.726;5.154;2023-05-10T12:56:24;11.48;;;10.45;;
67442;SDS011;54311;51.726;5.154;2023-05-10T12:58:49;12.02;;;11.00;;
67442;SDS011;54311;51.726;5.154;2023-05-10T13:01:15;13.18;;;12.15;;
67442;SDS011;54311;51.726;5.154;2023-05-10T13:03:41;13.68;;;12.40;;
67442;SDS011;54311;51.726;5.154;2023-05-10T13:06:07;13.85;;;12.57;;
67442;SDS011;54311;51.726;5.154;2023-05-10T13:08:33;14.75;;;13.32;;
67442;SDS011;54311;51.726;5.154;2023-05-10T13:10:59;16.77;;;15.38;;
67442;SDS011;54311;51.726;5.154;2023-05-10T13:13:25;17.00;;;15.45;;
67442;SDS011;54311;51.726;5.154;2023-05-10T13:15:51;17.55;;;16.02;;
67442;SDS011;54311;51.726;5.154;2023-05-10T13:18:16;18.10;;;16.23;;
67442;SDS011;54311;51.726;5.154;2023-05-10T13:20:42;19.15;;;17.55;;
67442;SDS011;54311;51.726;5.154;2023-05-10T13:23:09;20.90;;;19.10;;
67442;SDS011;54311;51.726;5.154;2023-05-10T13:25:34;22.98;;;20.88;;
67442;SDS011;54311;51.726;5.154;2023-05-10T13:28:00;22.52;;;20.33;;
67442;SDS011;54311;51.726;5.154;2023-05-10T13:30:25;20.23;;;18.48;;
67442;SDS011;54311;51.726;5.154;2023-05-10T13:32:51;19.08;;;17.38;;
67442;SDS011;54311;51.726;5.154;2023-05-10T13:35:16;18.65;;;16.98;;
67442;SDS011;54311;51.726;5.154;2023-05-10T13:37:41;18.38;;;16.80;;
67442;SDS011;54311;51.726;5.154;2023-05-10T13:40:07;17.02;;;15.68;;
67442;SDS011;54311;51.726;5.154;2023-05-10T13:42:32;13.68;;;12.35;;
67442;SDS011;54311;51.726;5.154;2023-05-10T13:44:58;17.20;;;15.75;;
67442;SDS011;54311;51.726;5.154;2023-05-10T13:47:25;16.60;;;14.88;;
67442;SDS011;54311;51.726;5.154;2023-05-10T13:49:50;15.80;;;14.27;;
67442;SDS011;54311;51.726;5.154;2023-05-10T13:52:16;10.30;;;9.32;;
67442;SDS011;54311;51.726;5.154;2023-05-10T13:54:41;10.98;;;10.02;;
67442;SDS011;54311;51.726;5.154;2023-05-10T13:57:06;13.82;;;12.52;;
67442;SDS011;54311;51.726;5.154;2023-05-10T13:59:32;14.02;;;12.93;;
67442;SDS011;54311;51.726;5.154;2023-05-10T14:01:58;14.32;;;12.93;;
67442;SDS011;54311;51.726;5.154;2023-05-10T14:04:23;14.18;;;12.73;;
67442;SDS011;54311;51.726;5.154;2023-05-10T14:06:49;14.38;;;13.20;;
67442;SDS011;54311;51.726;5.154;2023-05-10T14:09:14;13.70;;;12.48;;
67442;SDS011;54311;51.726;5.154;2023-05-10T14:11:40;14.07;;;12.63;;
67442;SDS011;54311;51.726;5.154;2023-05-10T14:14:08;11.70;;;10.70;;
67442;SDS011;54311;51.726;5.154;2023-05-10T14:16:37;11.90;;;10.80;;
67442;SDS011;54311;51.726;5.154;2023-05-10T14:19:02;12.88;;;10.35;;
67442;SDS011;54311;51.726;5.154;2023-05-10T14:21:28;11.55;;;10.40;;
67442;SDS011;54311;51.726;5.154;2023-05-10T14:23:55;10.60;;;9.50;;
67442;SDS011;54311;51.726;5.154;2023-05-10T14:26:21;9.65;;;8.70;;
67442;SDS011;54311;51.726;5.154;2023-05-10T14:28:46;10.50;;;7.90;;
67442;SDS011;54311;51.726;5.154;2023-05-10T14:31:12;8.93;;;7.60;;
67442;SDS011;54311;51.726;5.154;2023-05-10T14:33:37;7.78;;;6.97;;
67442;SDS011;54311;51.726;5.154;2023-05-10T14:36:02;7.65;;;6.88;;
67442;SDS011;54311;51.726;5.154;2023-05-10T14:38:28;7.30;;;6.70;;
67442;SDS011;54311;51.726;5.154;2023-05-10T14:40:54;7.13;;;6.50;;
67442;SDS011;54311;51.726;5.154;2023-05-10T14:43:19;9.27;;;6.15;;
67442;SDS011;54311;51.726;5.154;2023-05-10T14:45:45;6.38;;;5.82;;
67442;SDS011;54311;51.726;5.154;2023-05-10T14:48:10;9.00;;;5.93;;
67442;SDS011;54311;51.726;5.154;2023-05-10T14:50:40;5.70;;;5.30;;
67442;SDS011;54311;51.726;5.154;2023-05-10T14:53:05;6.38;;;5.88;;
67442;SDS011;54311;51.726;5.154;2023-05-10T14:55:31;6.70;;;5.15;;
67442;SDS011;54311;51.726;5.154;2023-05-10T14:57:57;6.30;;;5.57;;